createdAt,value
2023-05-02T00:00:11.507Z,101420.13
2023-05-02T00:02:39.674Z,101420.13
2023-05-02T00:05:08.621Z,101421.56
2023-05-02T00:07:37.396Z,101418.19
2023-05-02T00:10:06.161Z,101412.94
2023-05-02T00:12:34.618Z,101421.69
2023-05-02T00:15:02.581Z,101421.28
2023-05-02T00:17:32.424Z,101421.94
2023-05-02T00:20:00.928Z,101417.47
2023-05-02T00:22:31.077Z,101410.34
2023-05-02T00:24:59.878Z,101410.13
2023-05-02T00:27:27.795Z,101416.22
2023-05-02T00:29:55.686Z,101418.19
2023-05-02T00:32:23.680Z,101420.63
2023-05-02T00:34:53.086Z,101421.41
2023-05-02T00:37:21.371Z,101416.50
2023-05-02T00:39:49.253Z,101420.63
2023-05-02T00:42:17.124Z,101414.78
2023-05-02T00:44:45.192Z,101419.75
2023-05-02T00:47:13.024Z,101417.94
2023-05-02T00:49:40.934Z,101423.56
2023-05-02T00:52:10.620Z,101424.91
2023-05-02T00:54:43.239Z,101420.03
2023-05-02T00:57:11.132Z,101416.94
2023-05-02T00:59:39.378Z,101415.13
2023-05-02T01:02:21.599Z,101417.25
2023-05-02T01:05:01.139Z,101415.94
2023-05-02T01:07:44.802Z,101420.97
2023-05-02T01:10:20.709Z,101419.75
2023-05-02T01:12:59.702Z,101416.31
2023-05-02T01:15:28.576Z,101419.34
2023-05-02T01:17:57.985Z,101408.94
2023-05-02T01:20:30.420Z,101416.97
2023-05-02T01:23:08.474Z,101418.03
2023-05-02T01:25:55.262Z,101418.34
2023-05-02T01:28:32.433Z,101423.59
2023-05-02T01:31:04.593Z,101412.22
2023-05-02T01:33:34.130Z,101418.34
2023-05-02T01:36:03.685Z,101424.34
2023-05-02T01:38:33.205Z,101430.00
2023-05-02T01:41:05.388Z,101420.44
2023-05-02T01:43:35.808Z,101417.41
2023-05-02T01:46:08.125Z,101419.50
2023-05-02T01:48:38.038Z,101427.63
2023-05-02T01:51:08.559Z,101427.84
2023-05-02T01:53:37.550Z,101431.44
2023-05-02T01:56:09.946Z,101434.13
2023-05-02T01:58:39.111Z,101440.66
2023-05-02T02:01:10.925Z,101437.00
2023-05-02T02:03:39.105Z,101437.50
2023-05-02T02:06:08.489Z,101439.59
2023-05-02T02:08:36.981Z,101445.81
2023-05-02T02:11:11.683Z,101441.31
2023-05-02T02:13:44.772Z,101442.84
2023-05-02T02:16:20.419Z,101441.69
2023-05-02T02:18:49.106Z,101449.84
2023-05-02T02:21:20.407Z,101454.69
2023-05-02T02:23:49.913Z,101453.25
2023-05-02T02:26:22.120Z,101464.38
2023-05-02T02:28:50.171Z,101455.56
2023-05-02T02:31:19.553Z,101463.50
2023-05-02T02:33:47.958Z,101475.25
2023-05-02T02:36:22.904Z,101484.75
2023-05-02T02:39:01.007Z,101476.63
2023-05-02T02:41:33.449Z,101480.75
2023-05-02T02:44:21.550Z,101491.75
2023-05-02T02:47:01.030Z,101491.53
2023-05-02T02:49:35.160Z,101489.06
2023-05-02T02:52:11.406Z,101499.69
2023-05-02T02:54:46.701Z,101516.44
2023-05-02T02:57:19.741Z,101519.63
2023-05-02T03:00:08.668Z,101532.75
2023-05-02T03:02:39.855Z,101534.19
2023-05-02T03:05:10.564Z,101542.47
2023-05-02T03:07:38.494Z,101537.53
2023-05-02T03:10:08.294Z,101559.31
2023-05-02T03:12:36.230Z,101567.44
2023-05-02T03:15:18.492Z,101575.78
2023-05-02T03:17:47.801Z,101581.13
2023-05-02T03:20:16.214Z,101582.69
2023-05-02T03:22:44.255Z,101590.44
2023-05-02T03:25:12.705Z,101596.28
2023-05-02T03:27:40.567Z,101601.19
2023-05-02T03:30:10.101Z,101611.31
2023-05-02T03:32:38.041Z,101622.53
2023-05-02T03:35:08.520Z,101633.19
2023-05-02T03:37:36.566Z,101638.75
2023-05-02T03:40:04.791Z,101642.94
2023-05-02T03:42:33.687Z,101639.16
2023-05-02T03:45:01.653Z,101648.47
2023-05-02T03:47:29.600Z,101658.22
2023-05-02T03:49:59.370Z,101652.19
2023-05-02T03:52:29.047Z,101655.47
2023-05-02T03:54:56.980Z,101648.19
2023-05-02T03:57:25.161Z,101668.44
2023-05-02T03:59:53.206Z,101671.53
2023-05-02T04:02:21.278Z,101673.63
2023-05-02T04:04:49.412Z,101676.00
2023-05-02T04:07:19.345Z,101674.78
2023-05-02T04:09:48.808Z,101688.13
2023-05-02T04:12:17.271Z,101688.56
2023-05-02T04:14:45.098Z,101693.19
2023-05-02T04:17:13.679Z,101710.59
2023-05-02T04:19:41.720Z,101709.81
2023-05-02T04:22:09.615Z,101710.88
2023-05-02T04:24:37.561Z,101713.56
2023-05-02T04:27:07.982Z,101727.25
2023-05-02T04:29:36.143Z,101739.88
2023-05-02T04:32:04.144Z,101741.75
2023-05-02T04:34:32.050Z,101740.84
2023-05-02T04:37:00.000Z,101756.56
2023-05-02T04:39:27.903Z,101748.53
2023-05-02T04:41:56.025Z,101756.34
2023-05-02T04:44:25.419Z,101757.22
2023-05-02T04:46:53.460Z,101761.53
2023-05-02T04:49:21.643Z,101760.72
2023-05-02T04:51:49.629Z,101774.28
2023-05-02T04:54:17.560Z,101774.88
2023-05-02T04:56:46.096Z,101788.75
2023-05-02T04:59:13.984Z,101798.75
2023-05-02T05:01:43.612Z,101798.38
2023-05-02T05:04:12.052Z,101802.81
2023-05-02T05:06:40.597Z,101800.22
2023-05-02T05:09:08.689Z,101799.75
2023-05-02T05:11:36.664Z,101813.16
2023-05-02T05:14:05.236Z,101815.50
2023-05-02T05:16:33.483Z,101814.34
2023-05-02T05:19:02.825Z,101819.59
2023-05-02T05:21:31.112Z,101812.72
2023-05-02T05:23:58.974Z,101822.59
2023-05-02T05:26:27.055Z,101822.34
2023-05-02T05:28:54.871Z,101830.59
2023-05-02T05:31:24.410Z,101829.47
2023-05-02T05:33:52.534Z,101832.53
2023-05-02T05:36:23.426Z,101843.28
2023-05-02T05:38:52.352Z,101839.47
2023-05-02T05:41:20.230Z,101852.41
2023-05-02T05:43:48.053Z,101850.63
2023-05-02T05:46:16.023Z,101857.50
2023-05-02T05:48:43.862Z,101863.06
2023-05-02T05:51:11.739Z,101858.88
2023-05-02T05:53:41.096Z,101866.66
2023-05-02T05:56:12.248Z,101870.66
2023-05-02T05:58:40.966Z,101870.00
2023-05-02T06:01:09.521Z,101879.97
2023-05-02T06:03:37.474Z,101881.44
2023-05-02T06:06:06.022Z,101891.69
2023-05-02T06:08:33.982Z,101895.44
2023-05-02T06:11:03.191Z,101905.50
2023-05-02T06:13:31.110Z,101897.31
2023-05-02T06:16:02.181Z,101897.97
2023-05-02T06:18:30.184Z,101901.34
2023-05-02T06:20:58.265Z,101907.97
2023-05-02T06:23:26.485Z,101900.16
2023-05-02T06:25:54.594Z,101912.06
2023-05-02T06:28:23.948Z,101917.06
2023-05-02T06:30:58.535Z,101919.44
2023-05-02T06:33:26.472Z,101924.84
2023-05-02T06:35:54.449Z,101929.47
2023-05-02T06:38:22.684Z,101934.41
2023-05-02T06:40:51.200Z,101932.16
2023-05-02T06:43:20.110Z,101944.78
2023-05-02T06:45:49.570Z,101956.31
2023-05-02T06:48:17.803Z,101954.63
2023-05-02T06:50:45.876Z,101969.13
2023-05-02T06:53:14.087Z,101971.72
2023-05-02T06:55:42.329Z,101970.66
2023-05-02T06:58:10.419Z,101983.31
2023-05-02T07:00:38.640Z,101980.56
2023-05-02T07:03:08.199Z,101988.81
2023-05-02T07:05:36.363Z,101991.94
2023-05-02T07:08:04.399Z,101992.03
2023-05-02T07:10:32.662Z,101995.75
2023-05-02T07:13:00.645Z,102002.75
2023-05-02T07:15:29.120Z,102009.63
2023-05-02T07:17:57.094Z,102004.72
2023-05-02T07:20:26.739Z,102004.97
2023-05-02T07:22:55.232Z,102005.84
2023-05-02T07:25:23.128Z,102002.03
2023-05-02T07:27:51.055Z,102009.84
2023-05-02T07:30:18.987Z,102009.94
2023-05-02T07:32:46.862Z,102017.13
2023-05-02T07:35:14.829Z,102013.63
2023-05-02T07:37:44.306Z,102021.47
2023-05-02T07:40:12.575Z,102022.16
2023-05-02T07:42:41.809Z,102023.34
2023-05-02T07:45:10.683Z,102031.88
2023-05-02T07:47:38.735Z,102039.00
2023-05-02T07:50:07.809Z,102031.66
2023-05-02T07:52:35.815Z,102035.94
2023-05-02T07:55:05.491Z,102036.22
2023-05-02T07:57:33.475Z,102034.34
2023-05-02T08:00:01.742Z,102058.03
2023-05-02T08:02:30.269Z,102042.44
2023-05-02T08:04:58.375Z,102060.91
2023-05-02T08:07:26.478Z,102055.50
2023-05-02T08:09:54.353Z,102064.25
2023-05-02T08:12:23.859Z,102063.38
2023-05-02T08:14:51.948Z,102067.72
2023-05-02T08:17:19.778Z,102073.44
2023-05-02T08:19:47.686Z,102079.00
2023-05-02T08:22:15.720Z,102074.66
2023-05-02T08:24:43.592Z,102072.78
2023-05-02T08:27:11.484Z,102087.13
2023-05-02T08:29:41.130Z,102079.19
2023-05-02T08:32:09.252Z,102088.72
2023-05-02T08:34:37.133Z,102096.16
2023-05-02T08:37:09.734Z,102100.19
2023-05-02T08:39:37.730Z,102107.16
2023-05-02T08:42:07.991Z,102110.34
2023-05-02T08:44:36.559Z,102093.31
2023-05-02T08:47:06.750Z,102092.84
2023-05-02T08:49:37.409Z,102100.00
2023-05-02T08:52:06.865Z,102110.63
2023-05-02T08:54:35.499Z,102114.69
2023-05-02T08:57:05.305Z,102115.47
2023-05-02T08:59:33.352Z,102113.00
2023-05-02T09:02:13.784Z,102128.94
2023-05-02T09:04:44.265Z,102127.31
2023-05-02T09:07:12.258Z,102125.47
2023-05-02T09:09:40.382Z,102127.59
2023-05-02T09:12:08.327Z,102139.66
2023-05-02T09:14:36.901Z,102135.28
2023-05-02T09:17:04.957Z,102138.78
2023-05-02T09:19:34.626Z,102138.31
2023-05-02T09:22:03.061Z,102137.38
2023-05-02T09:24:30.977Z,102141.13
2023-05-02T09:27:00.485Z,102146.88
2023-05-02T09:29:30.834Z,102133.50
2023-05-02T09:31:58.824Z,102136.47
2023-05-02T09:34:26.782Z,102138.84
2023-05-02T09:36:56.250Z,102137.13
2023-05-02T09:39:26.388Z,102141.59
2023-05-02T09:41:55.118Z,102138.19
2023-05-02T09:44:24.653Z,102138.16
2023-05-02T09:46:54.389Z,102139.78
2023-05-02T09:49:41.146Z,102140.06
2023-05-02T09:52:14.190Z,102164.38
2023-05-02T09:54:42.364Z,102154.59
2023-05-02T09:57:11.068Z,102153.59
2023-05-02T09:59:40.819Z,102148.81
2023-05-02T10:02:11.494Z,102148.06
2023-05-02T10:04:40.609Z,102154.69
2023-05-02T10:07:10.600Z,102155.25
2023-05-02T10:09:44.431Z,102158.75
2023-05-02T10:12:16.905Z,102166.59
2023-05-02T10:14:51.726Z,102167.00
2023-05-02T10:17:26.713Z,102178.63
2023-05-02T10:19:58.824Z,102175.78
2023-05-02T10:22:27.761Z,102184.28
2023-05-02T10:25:00.942Z,102180.50
2023-05-02T10:27:30.744Z,102196.97
2023-05-02T10:29:59.933Z,102193.34
2023-05-02T10:32:29.998Z,102196.66
2023-05-02T10:34:59.283Z,102187.47
2023-05-02T10:37:28.876Z,102189.28
2023-05-02T10:39:58.959Z,102188.56
2023-05-02T10:42:28.236Z,102191.09
2023-05-02T10:44:56.260Z,102176.56
2023-05-02T10:47:27.195Z,102188.75
2023-05-02T10:49:58.054Z,102200.47
2023-05-02T10:52:31.933Z,102190.38
2023-05-02T10:55:20.833Z,102191.81
2023-05-02T10:58:22.543Z,102194.38
2023-05-02T11:00:50.511Z,102199.00
2023-05-02T11:03:51.679Z,102201.13
2023-05-02T11:06:19.741Z,102204.59
2023-05-02T11:08:47.592Z,102196.53
2023-05-02T11:11:48.347Z,102208.00
2023-05-02T11:14:49.943Z,102211.28
2023-05-02T11:17:19.110Z,102210.09
2023-05-02T11:20:29.618Z,102213.19
2023-05-02T11:23:22.836Z,102220.78
2023-05-02T11:25:51.768Z,102219.16
2023-05-02T11:28:51.039Z,102220.44
2023-05-02T11:31:54.534Z,102224.22
2023-05-02T11:34:22.860Z,102213.44
2023-05-02T11:36:51.134Z,102231.28
2023-05-02T11:39:23.246Z,102228.56
2023-05-02T11:41:51.894Z,102227.16
2023-05-02T11:44:21.194Z,102238.22
2023-05-02T11:46:50.108Z,102250.78
2023-05-02T11:49:18.124Z,102240.31
2023-05-02T11:51:46.192Z,102252.78
2023-05-02T11:54:20.349Z,102252.19
2023-05-02T11:56:48.636Z,102249.88
2023-05-02T11:59:16.596Z,102262.47
2023-05-02T12:01:50.500Z,102260.59
2023-05-02T12:04:22.009Z,102254.94
2023-05-02T12:06:56.784Z,102262.53
2023-05-02T12:09:24.740Z,102250.91
2023-05-02T12:11:55.554Z,102255.06
2023-05-02T12:14:29.982Z,102258.16
2023-05-02T12:17:00.012Z,102250.34
2023-05-02T12:19:28.588Z,102253.31
2023-05-02T12:21:56.685Z,102265.63
2023-05-02T12:24:24.851Z,102274.34
2023-05-02T12:27:11.032Z,102283.13
2023-05-02T12:29:40.334Z,102280.00
2023-05-02T12:32:09.560Z,102275.91
2023-05-02T12:34:38.099Z,102290.41
2023-05-02T12:37:06.730Z,102293.75
2023-05-02T12:39:39.106Z,102281.06
2023-05-02T12:42:11.830Z,102286.13
2023-05-02T12:44:40.858Z,102289.50
2023-05-02T12:47:11.677Z,102298.59
2023-05-02T12:49:56.017Z,102311.75
2023-05-02T12:52:50.762Z,102313.44
2023-05-02T12:55:19.063Z,102307.97
2023-05-02T13:02:32.265Z,102305.03
2023-05-02T13:05:01.747Z,102314.28
2023-05-02T13:07:30.087Z,102320.06
2023-05-02T13:09:57.997Z,102320.75
2023-05-02T13:12:26.477Z,102329.97
2023-05-02T13:14:54.710Z,102336.50
2023-05-02T13:17:22.786Z,102330.28
2023-05-02T13:20:00.935Z,102333.69
2023-05-02T13:22:31.406Z,102329.88
2023-05-02T13:24:59.587Z,102328.66
2023-05-02T13:27:28.151Z,102327.34
2023-05-02T13:29:56.130Z,102339.94
2023-05-02T13:32:24.005Z,102341.50
2023-05-02T13:34:51.925Z,102353.56
2023-05-02T13:37:19.889Z,102338.94
2023-05-02T13:39:49.678Z,102338.38
2023-05-02T13:42:17.644Z,102350.97
2023-05-02T13:44:45.626Z,102352.94
2023-05-02T13:47:13.950Z,102345.78
2023-05-02T13:49:41.871Z,102342.50
2023-05-02T13:52:09.894Z,102351.94
2023-05-02T13:54:37.869Z,102356.63
2023-05-02T13:57:07.347Z,102351.53
2023-05-02T13:59:35.368Z,102360.50
2023-05-02T14:02:03.413Z,102359.00
2023-05-02T14:04:31.368Z,102363.31
2023-05-02T14:06:59.412Z,102370.56
2023-05-02T14:09:27.297Z,102366.16
2023-05-02T14:11:55.556Z,102363.16
2023-05-02T14:14:24.864Z,102368.03
2023-05-02T14:16:52.780Z,102369.84
2023-05-02T14:19:20.679Z,102375.69
2023-05-02T14:21:49.161Z,102371.06
2023-05-02T14:24:18.407Z,102386.97
2023-05-02T14:26:46.572Z,102378.56
2023-05-02T14:29:14.690Z,102368.69
2023-05-02T14:31:46.066Z,102377.59
2023-05-02T14:34:14.280Z,102386.38
2023-05-02T14:36:45.116Z,102387.16
2023-05-02T14:39:13.098Z,102390.38
2023-05-02T14:41:41.103Z,102392.00
2023-05-02T14:44:08.944Z,102382.28
2023-05-02T14:46:36.959Z,102388.88
2023-05-02T14:49:06.280Z,102395.91
2023-05-02T14:51:34.117Z,102394.75
2023-05-02T14:54:02.318Z,102399.88
2023-05-02T14:56:30.222Z,102392.91
2023-05-02T14:58:58.132Z,102398.34
2023-05-02T15:01:26.437Z,102403.19
2023-05-02T15:06:30.240Z,102410.81
2023-05-02T15:08:58.508Z,102400.66
2023-05-02T15:11:26.376Z,102401.97
2023-05-02T15:13:55.299Z,102389.88
2023-05-02T15:16:24.504Z,102394.41
2023-05-02T15:18:52.384Z,102407.31
2023-05-02T15:21:20.232Z,102404.28
2023-05-02T15:23:49.551Z,102407.19
2023-05-02T15:26:17.599Z,102401.44
2023-05-02T15:28:45.730Z,102409.75
2023-05-02T15:31:14.069Z,102409.06
2023-05-02T15:33:41.953Z,102413.34
2023-05-02T15:36:10.214Z,102414.88
2023-05-02T15:38:39.690Z,102420.22
2023-05-02T15:41:09.744Z,102417.47
2023-05-02T15:43:38.404Z,102424.28
2023-05-02T15:46:06.636Z,102419.94
2023-05-02T15:48:34.928Z,102424.59
2023-05-02T15:51:03.239Z,102427.31
2023-05-02T15:53:31.232Z,102433.19
2023-05-02T15:56:00.938Z,102433.78
2023-05-02T15:58:30.228Z,102439.72
2023-05-02T16:00:58.162Z,102434.63
2023-05-02T16:03:26.307Z,102430.16
2023-05-02T16:05:54.823Z,102430.06
2023-05-02T16:08:22.835Z,102434.78
2023-05-02T16:10:50.808Z,102427.03
2023-05-02T16:13:18.944Z,102442.91
2023-05-02T16:15:49.002Z,102441.75
2023-05-02T16:18:16.910Z,102445.88
2023-05-02T16:20:47.759Z,102454.78
2023-05-02T16:23:15.877Z,102459.25
2023-05-02T16:25:44.303Z,102459.03
2023-05-02T16:28:12.347Z,102454.16
2023-05-02T16:30:40.605Z,102460.13
2023-05-02T16:33:09.895Z,102467.28
2023-05-02T16:35:37.806Z,102458.22
2023-05-02T16:38:06.085Z,102456.47
2023-05-02T16:40:33.945Z,102469.16
2023-05-02T16:43:01.843Z,102465.03
2023-05-02T16:45:29.882Z,102465.56
2023-05-02T16:47:57.873Z,102467.81
2023-05-02T16:50:27.278Z,102471.91
2023-05-02T16:52:55.181Z,102477.19
2023-05-02T16:55:23.273Z,102484.31
2023-05-02T16:57:51.141Z,102492.56
2023-05-02T17:00:19.780Z,102490.72
2023-05-02T17:02:47.825Z,102481.44
2023-05-02T17:05:16.685Z,102480.41
2023-05-02T17:07:46.349Z,102489.22
2023-05-02T17:10:14.431Z,102492.50
2023-05-02T17:12:43.136Z,102488.03
2023-05-02T17:15:11.758Z,102482.75
2023-05-02T17:17:39.650Z,102484.00
2023-05-02T17:20:08.264Z,102485.81
2023-05-02T17:22:38.182Z,102483.38
2023-05-02T17:25:08.213Z,102502.44
2023-05-02T17:27:37.750Z,102499.19
2023-05-02T17:30:09.502Z,102499.78
2023-05-02T17:32:37.944Z,102500.16
2023-05-02T17:35:06.670Z,102500.00
2023-05-02T17:37:35.280Z,102498.69
2023-05-02T17:40:04.980Z,102500.84
2023-05-02T17:42:34.453Z,102501.66
2023-05-02T17:45:02.632Z,102510.97
2023-05-02T17:47:30.566Z,102509.47
2023-05-02T17:49:58.477Z,102511.28
2023-05-02T17:52:26.900Z,102505.19
2023-05-02T17:54:54.756Z,102516.84
2023-05-02T17:57:22.695Z,102511.72
2023-05-02T17:59:56.622Z,102526.19
2023-05-02T18:02:24.716Z,102521.03
2023-05-02T18:04:52.698Z,102525.84
2023-05-02T18:07:24.027Z,102528.47
2023-05-02T18:09:52.467Z,102533.16
2023-05-02T18:12:20.498Z,102529.47
2023-05-02T18:14:49.249Z,102533.84
2023-05-02T18:17:20.431Z,102538.84
2023-05-02T18:19:50.344Z,102539.75
2023-05-02T18:22:21.306Z,102543.16
2023-05-02T18:24:49.834Z,102533.16
2023-05-02T18:27:17.940Z,102541.09
2023-05-02T18:29:45.878Z,102549.19
2023-05-02T18:32:14.616Z,102550.91
2023-05-02T18:34:44.342Z,102556.47
2023-05-02T18:37:12.439Z,102556.13
2023-05-02T18:39:40.289Z,102565.16
2023-05-02T18:42:08.365Z,102558.25
2023-05-02T18:44:36.278Z,102544.53
2023-05-02T18:47:04.252Z,102549.75
2023-05-02T18:49:32.223Z,102552.50
2023-05-02T18:52:01.569Z,102550.63
2023-05-02T18:54:29.504Z,102556.22
2023-05-02T18:56:57.434Z,102558.88
2023-05-02T18:59:25.372Z,102553.13
2023-05-02T19:01:53.993Z,102557.31
2023-05-02T19:04:22.055Z,102556.13
2023-05-02T19:06:50.029Z,102555.50
2023-05-02T19:09:19.820Z,102568.31
2023-05-02T19:11:47.726Z,102570.66
2023-05-02T19:14:15.644Z,102563.53
2023-05-02T19:16:44.871Z,102572.22
2023-05-02T19:19:15.750Z,102574.66
2023-05-02T19:21:45.915Z,102580.72
2023-05-02T19:24:13.808Z,102585.22
2023-05-02T19:26:45.428Z,102583.88
2023-05-02T19:29:13.420Z,102589.78
2023-05-02T19:31:43.154Z,102590.09
2023-05-02T19:34:11.096Z,102600.50
2023-05-02T19:36:39.134Z,102603.59
2023-05-02T19:39:06.977Z,102607.03
2023-05-02T19:41:35.200Z,102615.03
2023-05-02T19:44:04.598Z,102608.81
2023-05-02T19:46:32.681Z,102610.22
2023-05-02T19:49:00.584Z,102617.00
2023-05-02T19:51:29.650Z,102615.28
2023-05-02T19:53:58.722Z,102617.06
2023-05-02T19:56:28.685Z,102617.63
2023-05-02T19:58:58.725Z,102623.69
2023-05-02T20:01:29.207Z,102619.81
2023-05-02T20:03:57.142Z,102623.53
2023-05-02T20:06:25.617Z,102626.41
2023-05-02T20:08:53.560Z,102618.91
2023-05-02T20:11:21.461Z,102625.38
2023-05-02T20:13:49.410Z,102628.22
2023-05-02T20:16:17.319Z,102630.38
2023-05-02T20:18:47.013Z,102627.94
2023-05-02T20:21:15.053Z,102638.41
2023-05-02T20:23:44.373Z,102631.91
2023-05-02T20:26:14.231Z,102635.41
2023-05-02T20:28:43.224Z,102642.63
2023-05-02T20:31:11.183Z,102646.34
2023-05-02T20:33:45.507Z,102637.72
2023-05-02T20:36:15.859Z,102643.06
2023-05-02T20:38:44.965Z,102640.56
2023-05-02T20:41:14.177Z,102639.19
2023-05-02T20:43:45.284Z,102636.41
2023-05-02T20:46:16.270Z,102646.63
2023-05-02T20:48:44.541Z,102648.47
2023-05-02T20:51:12.520Z,102653.00
2023-05-02T20:53:42.153Z,102652.50
2023-05-02T20:56:10.257Z,102652.47
2023-05-02T20:58:38.296Z,102647.06
2023-05-02T21:01:06.525Z,102652.59
2023-05-02T21:03:39.357Z,102653.94
2023-05-02T21:06:07.567Z,102663.81
2023-05-02T21:08:35.626Z,102661.72
2023-05-02T21:11:13.600Z,102654.53
2023-05-02T21:13:42.237Z,102658.84
2023-05-02T21:16:18.161Z,102658.81
2023-05-02T21:18:46.871Z,102652.66
2023-05-02T21:21:15.521Z,102656.44
2023-05-02T21:23:43.529Z,102656.47
2023-05-02T21:26:13.278Z,102649.47
2023-05-02T21:28:41.299Z,102655.94
2023-05-02T21:31:12.452Z,102657.84
2023-05-02T21:33:41.517Z,102665.06
2023-05-02T21:36:10.064Z,102666.00
2023-05-02T21:38:38.050Z,102669.44
2023-05-02T21:41:06.657Z,102665.16
2023-05-02T21:43:40.226Z,102665.91
2023-05-02T21:46:08.344Z,102663.44
2023-05-02T21:48:36.392Z,102655.44
2023-05-02T21:51:08.327Z,102663.69
2023-05-02T21:53:36.152Z,102667.13
2023-05-02T21:56:04.149Z,102672.53
2023-05-02T21:58:32.010Z,102667.38
2023-05-02T22:01:01.598Z,102670.16
2023-05-02T22:03:31.040Z,102667.25
2023-05-02T22:06:04.858Z,102661.25
2023-05-02T22:08:33.333Z,102668.22
2023-05-02T22:11:01.674Z,102663.81
2023-05-02T22:13:29.764Z,102669.88
2023-05-02T22:15:57.705Z,102670.81
2023-05-02T22:18:27.061Z,102666.50
2023-05-02T22:20:57.257Z,102664.88
2023-05-02T22:23:25.467Z,102665.72
2023-05-02T22:25:53.411Z,102665.88
2023-05-02T22:28:21.308Z,102663.22
2023-05-02T22:30:49.466Z,102672.06
2023-05-02T22:33:17.424Z,102683.09
2023-05-02T22:35:46.757Z,102682.06
2023-05-02T22:38:17.138Z,102682.13
2023-05-02T22:40:45.081Z,102689.28
2023-05-02T22:43:12.960Z,102687.56
2023-05-02T22:45:41.016Z,102699.09
2023-05-02T22:48:09.178Z,102693.59
2023-05-02T22:50:37.529Z,102695.38
2023-05-02T22:53:09.683Z,102693.78
2023-05-02T22:55:38.450Z,102700.06
2023-05-02T22:58:06.317Z,102691.34
2023-05-02T23:00:34.829Z,102698.47
2023-05-02T23:03:02.796Z,102699.25
2023-05-02T23:05:30.796Z,102705.50
2023-05-02T23:07:58.963Z,102699.31
2023-05-02T23:10:28.289Z,102699.41
2023-05-02T23:12:56.258Z,102699.47
2023-05-02T23:15:24.325Z,102705.81
2023-05-02T23:17:52.235Z,102705.72
2023-05-02T23:20:22.764Z,102705.81
2023-05-02T23:22:51.253Z,102707.59
2023-05-02T23:25:19.940Z,102701.63
2023-05-02T23:27:49.137Z,102703.31
2023-05-02T23:30:17.084Z,102706.06
2023-05-02T23:32:45.129Z,102707.88
2023-05-02T23:35:13.254Z,102713.31
2023-05-02T23:37:42.243Z,102717.75
2023-05-02T23:40:10.816Z,102708.00
2023-05-02T23:42:40.215Z,102716.81
2023-05-02T23:45:10.981Z,102715.13
2023-05-02T23:47:39.348Z,102717.00
2023-05-02T23:50:08.621Z,102721.28
2023-05-02T23:52:36.905Z,102723.19
2023-05-02T23:55:12.912Z,102722.22
2023-05-02T23:57:40.915Z,102728.34
